sensor_id;sensor_type;location;lat;lon;timestamp;P1;durP1;ratioP1;P2;durP2;ratioP2
62362;SDS011;48396;48.426;1.500;2023-05-07T00:01:07;3.35;;;0.80;;
62362;SDS011;48396;48.426;1.500;2023-05-07T00:03:33;1.85;;;0.55;;
62362;SDS011;48396;48.426;1.500;2023-05-07T00:05:58;2.45;;;0.70;;
62362;SDS011;48396;48.426;1.500;2023-05-07T00:08:24;1.38;;;0.68;;
62362;SDS011;48396;48.426;1.500;2023-05-07T00:10:49;2.30;;;1.05;;
62362;SDS011;48396;48.426;1.500;2023-05-07T00:13:34;0.57;;;0.43;;
62362;SDS011;48396;48.426;1.500;2023-05-07T00:16:03;3.92;;;0.93;;
62362;SDS011;48396;48.426;1.500;2023-05-07T00:18:29;3.85;;;0.93;;
62362;SDS011;48396;48.426;1.500;2023-05-07T00:20:55;1.00;;;0.68;;
62362;SDS011;48396;48.426;1.500;2023-05-07T00:23:21;3.58;;;0.82;;
62362;SDS011;48396;48.426;1.500;2023-05-07T00:25:47;4.07;;;0.73;;
62362;SDS011;48396;48.426;1.500;2023-05-07T00:28:12;1.75;;;1.00;;
62362;SDS011;48396;48.426;1.500;2023-05-07T00:30:38;1.27;;;0.70;;
62362;SDS011;48396;48.426;1.500;2023-05-07T00:33:04;3.53;;;0.82;;
62362;SDS011;48396;48.426;1.500;2023-05-07T00:35:29;1.80;;;0.95;;
62362;SDS011;48396;48.426;1.500;2023-05-07T00:37:55;1.02;;;0.85;;
62362;SDS011;48396;48.426;1.500;2023-05-07T00:40:21;4.32;;;0.90;;
62362;SDS011;48396;48.426;1.500;2023-05-07T00:42:46;3.55;;;1.05;;
62362;SDS011;48396;48.426;1.500;2023-05-07T00:45:13;1.85;;;0.80;;
62362;SDS011;48396;48.426;1.500;2023-05-07T00:47:40;0.90;;;0.73;;
62362;SDS011;48396;48.426;1.500;2023-05-07T00:50:06;4.03;;;1.17;;
62362;SDS011;48396;48.426;1.500;2023-05-07T00:52:32;1.45;;;0.90;;
62362;SDS011;48396;48.426;1.500;2023-05-07T00:54:59;2.40;;;0.82;;
62362;SDS011;48396;48.426;1.500;2023-05-07T00:57:29;2.55;;;0.90;;
62362;SDS011;48396;48.426;1.500;2023-05-07T01:00:05;2.53;;;1.00;;
62362;SDS011;48396;48.426;1.500;2023-05-07T01:02:32;1.77;;;0.98;;
62362;SDS011;48396;48.426;1.500;2023-05-07T01:04:58;3.05;;;1.10;;
62362;SDS011;48396;48.426;1.500;2023-05-07T01:07:25;1.52;;;1.10;;
62362;SDS011;48396;48.426;1.500;2023-05-07T01:09:51;2.53;;;1.00;;
62362;SDS011;48396;48.426;1.500;2023-05-07T01:12:17;1.58;;;1.08;;
62362;SDS011;48396;48.426;1.500;2023-05-07T01:14:43;4.47;;;1.38;;
62362;SDS011;48396;48.426;1.500;2023-05-07T01:17:09;3.45;;;1.48;;
62362;SDS011;48396;48.426;1.500;2023-05-07T01:19:34;3.25;;;1.17;;
62362;SDS011;48396;48.426;1.500;2023-05-07T01:22:02;2.75;;;0.98;;
62362;SDS011;48396;48.426;1.500;2023-05-07T01:24:31;1.58;;;0.77;;
62362;SDS011;48396;48.426;1.500;2023-05-07T01:26:57;3.90;;;0.98;;
62362;SDS011;48396;48.426;1.500;2023-05-07T01:29:23;1.42;;;0.68;;
62362;SDS011;48396;48.426;1.500;2023-05-07T01:31:48;3.30;;;0.93;;
62362;SDS011;48396;48.426;1.500;2023-05-07T01:34:16;1.92;;;0.70;;
62362;SDS011;48396;48.426;1.500;2023-05-07T01:36:43;0.40;;;0.40;;
62362;SDS011;48396;48.426;1.500;2023-05-07T01:39:09;1.23;;;0.30;;
62362;SDS011;48396;48.426;1.500;2023-05-07T01:41:36;2.70;;;0.80;;
62362;SDS011;48396;48.426;1.500;2023-05-07T01:44:03;2.25;;;0.63;;
62362;SDS011;48396;48.426;1.500;2023-05-07T01:46:29;0.80;;;0.60;;
62362;SDS011;48396;48.426;1.500;2023-05-07T01:48:57;1.30;;;0.60;;
62362;SDS011;48396;48.426;1.500;2023-05-07T01:51:23;3.05;;;0.70;;
62362;SDS011;48396;48.426;1.500;2023-05-07T01:53:49;2.42;;;0.82;;
62362;SDS011;48396;48.426;1.500;2023-05-07T01:56:17;1.80;;;0.80;;
62362;SDS011;48396;48.426;1.500;2023-05-07T01:58:44;1.05;;;0.70;;
62362;SDS011;48396;48.426;1.500;2023-05-07T02:01:11;1.67;;;0.88;;
62362;SDS011;48396;48.426;1.500;2023-05-07T02:03:37;2.88;;;0.75;;
62362;SDS011;48396;48.426;1.500;2023-05-07T02:06:03;1.15;;;0.70;;
62362;SDS011;48396;48.426;1.500;2023-05-07T02:08:28;2.25;;;0.80;;
62362;SDS011;48396;48.426;1.500;2023-05-07T02:10:54;2.30;;;0.75;;
62362;SDS011;48396;48.426;1.500;2023-05-07T02:13:20;3.13;;;0.93;;
62362;SDS011;48396;48.426;1.500;2023-05-07T02:15:47;1.60;;;0.90;;
62362;SDS011;48396;48.426;1.500;2023-05-07T02:18:15;0.90;;;0.70;;
62362;SDS011;48396;48.426;1.500;2023-05-07T02:20:41;0.98;;;0.85;;
62362;SDS011;48396;48.426;1.500;2023-05-07T02:23:07;2.28;;;0.70;;
62362;SDS011;48396;48.426;1.500;2023-05-07T02:25:33;0.90;;;0.80;;
62362;SDS011;48396;48.426;1.500;2023-05-07T02:27:58;1.90;;;0.90;;
62362;SDS011;48396;48.426;1.500;2023-05-07T02:30:24;2.53;;;1.10;;
62362;SDS011;48396;48.426;1.500;2023-05-07T02:32:50;1.42;;;1.00;;
62362;SDS011;48396;48.426;1.500;2023-05-07T02:35:16;1.63;;;1.20;;
62362;SDS011;48396;48.426;1.500;2023-05-07T02:37:42;2.10;;;1.10;;
62362;SDS011;48396;48.426;1.500;2023-05-07T02:40:08;3.70;;;1.33;;
62362;SDS011;48396;48.426;1.500;2023-05-07T02:42:34;1.92;;;1.00;;
62362;SDS011;48396;48.426;1.500;2023-05-07T02:45:00;2.53;;;1.08;;
62362;SDS011;48396;48.426;1.500;2023-05-07T02:47:25;1.77;;;0.90;;
62362;SDS011;48396;48.426;1.500;2023-05-07T02:49:54;2.47;;;1.10;;
62362;SDS011;48396;48.426;1.500;2023-05-07T02:52:20;1.35;;;1.00;;
62362;SDS011;48396;48.426;1.500;2023-05-07T02:54:46;2.22;;;0.80;;
62362;SDS011;48396;48.426;1.500;2023-05-07T02:57:12;2.00;;;0.70;;
62362;SDS011;48396;48.426;1.500;2023-05-07T02:59:37;1.75;;;0.90;;
62362;SDS011;48396;48.426;1.500;2023-05-07T03:02:03;1.52;;;0.80;;
62362;SDS011;48396;48.426;1.500;2023-05-07T03:04:29;1.73;;;0.75;;
62362;SDS011;48396;48.426;1.500;2023-05-07T03:06:54;2.72;;;0.82;;
62362;SDS011;48396;48.426;1.500;2023-05-07T03:09:20;1.13;;;0.70;;
62362;SDS011;48396;48.426;1.500;2023-05-07T03:11:46;2.22;;;1.00;;
62362;SDS011;48396;48.426;1.500;2023-05-07T03:14:11;1.60;;;0.80;;
62362;SDS011;48396;48.426;1.500;2023-05-07T03:16:37;1.27;;;0.60;;
62362;SDS011;48396;48.426;1.500;2023-05-07T03:19:03;1.63;;;0.75;;
62362;SDS011;48396;48.426;1.500;2023-05-07T03:21:29;2.17;;;1.00;;
62362;SDS011;48396;48.426;1.500;2023-05-07T03:23:55;1.55;;;1.10;;
62362;SDS011;48396;48.426;1.500;2023-05-07T03:26:21;1.23;;;0.90;;
62362;SDS011;48396;48.426;1.500;2023-05-07T03:28:47;2.47;;;1.35;;
62362;SDS011;48396;48.426;1.500;2023-05-07T03:31:12;2.08;;;0.82;;
62362;SDS011;48396;48.426;1.500;2023-05-07T03:33:39;1.35;;;0.82;;
62362;SDS011;48396;48.426;1.500;2023-05-07T03:36:18;2.72;;;1.20;;
62362;SDS011;48396;48.426;1.500;2023-05-07T03:38:44;1.27;;;1.05;;
62362;SDS011;48396;48.426;1.500;2023-05-07T03:41:10;1.15;;;0.70;;
62362;SDS011;48396;48.426;1.500;2023-05-07T03:43:35;1.73;;;0.90;;
62362;SDS011;48396;48.426;1.500;2023-05-07T03:46:01;1.95;;;1.00;;
62362;SDS011;48396;48.426;1.500;2023-05-07T03:48:26;2.17;;;0.85;;
62362;SDS011;48396;48.426;1.500;2023-05-07T03:50:52;1.25;;;1.00;;
62362;SDS011;48396;48.426;1.500;2023-05-07T03:53:18;3.22;;;1.23;;
62362;SDS011;48396;48.426;1.500;2023-05-07T03:55:43;2.17;;;1.10;;
62362;SDS011;48396;48.426;1.500;2023-05-07T03:58:09;1.15;;;1.00;;
62362;SDS011;48396;48.426;1.500;2023-05-07T04:00:34;2.05;;;0.95;;
62362;SDS011;48396;48.426;1.500;2023-05-07T04:03:03;4.07;;;0.93;;
62362;SDS011;48396;48.426;1.500;2023-05-07T04:05:29;1.38;;;0.73;;
62362;SDS011;48396;48.426;1.500;2023-05-07T04:07:55;2.08;;;1.17;;
62362;SDS011;48396;48.426;1.500;2023-05-07T04:10:22;2.10;;;1.38;;
62362;SDS011;48396;48.426;1.500;2023-05-07T04:12:49;1.55;;;1.10;;
62362;SDS011;48396;48.426;1.500;2023-05-07T04:15:15;1.95;;;1.17;;
62362;SDS011;48396;48.426;1.500;2023-05-07T04:17:40;3.35;;;1.00;;
62362;SDS011;48396;48.426;1.500;2023-05-07T04:20:08;3.33;;;1.13;;
62362;SDS011;48396;48.426;1.500;2023-05-07T04:22:53;4.00;;;1.50;;
62362;SDS011;48396;48.426;1.500;2023-05-07T04:25:19;3.42;;;1.50;;
62362;SDS011;48396;48.426;1.500;2023-05-07T04:27:45;5.13;;;1.73;;
62362;SDS011;48396;48.426;1.500;2023-05-07T04:30:10;2.78;;;1.02;;
62362;SDS011;48396;48.426;1.500;2023-05-07T04:32:37;3.38;;;1.20;;
62362;SDS011;48396;48.426;1.500;2023-05-07T04:35:04;1.48;;;1.33;;
62362;SDS011;48396;48.426;1.500;2023-05-07T04:37:31;2.72;;;1.13;;
62362;SDS011;48396;48.426;1.500;2023-05-07T04:39:57;1.35;;;1.25;;
62362;SDS011;48396;48.426;1.500;2023-05-07T04:42:22;2.60;;;1.38;;
62362;SDS011;48396;48.426;1.500;2023-05-07T04:44:52;1.83;;;1.17;;
62362;SDS011;48396;48.426;1.500;2023-05-07T04:47:18;1.88;;;1.23;;
62362;SDS011;48396;48.426;1.500;2023-05-07T04:49:44;3.42;;;1.67;;
62362;SDS011;48396;48.426;1.500;2023-05-07T04:52:09;2.10;;;1.20;;
62362;SDS011;48396;48.426;1.500;2023-05-07T04:54:35;1.83;;;1.30;;
62362;SDS011;48396;48.426;1.500;2023-05-07T04:57:00;4.40;;;1.40;;
62362;SDS011;48396;48.426;1.500;2023-05-07T04:59:28;2.78;;;1.55;;
62362;SDS011;48396;48.426;1.500;2023-05-07T05:01:53;1.83;;;1.38;;
62362;SDS011;48396;48.426;1.500;2023-05-07T05:04:19;1.90;;;1.40;;
62362;SDS011;48396;48.426;1.500;2023-05-07T05:06:44;2.33;;;1.17;;
62362;SDS011;48396;48.426;1.500;2023-05-07T05:09:10;3.10;;;1.50;;
62362;SDS011;48396;48.426;1.500;2023-05-07T05:11:36;3.42;;;1.50;;
62362;SDS011;48396;48.426;1.500;2023-05-07T05:14:01;5.00;;;1.50;;
62362;SDS011;48396;48.426;1.500;2023-05-07T05:16:27;2.83;;;1.92;;
62362;SDS011;48396;48.426;1.500;2023-05-07T05:18:52;6.57;;;2.22;;
62362;SDS011;48396;48.426;1.500;2023-05-07T05:21:19;1.35;;;1.13;;
62362;SDS011;48396;48.426;1.500;2023-05-07T05:24:04;2.83;;;1.23;;
62362;SDS011;48396;48.426;1.500;2023-05-07T05:26:30;4.88;;;1.30;;
62362;SDS011;48396;48.426;1.500;2023-05-07T05:28:55;1.58;;;1.33;;
62362;SDS011;48396;48.426;1.500;2023-05-07T05:31:21;1.90;;;1.20;;
62362;SDS011;48396;48.426;1.500;2023-05-07T05:33:46;1.67;;;1.58;;
62362;SDS011;48396;48.426;1.500;2023-05-07T05:36:12;2.35;;;1.52;;
62362;SDS011;48396;48.426;1.500;2023-05-07T05:38:38;3.55;;;1.90;;
62362;SDS011;48396;48.426;1.500;2023-05-07T05:41:04;2.47;;;1.80;;
62362;SDS011;48396;48.426;1.500;2023-05-07T05:43:30;1.85;;;1.30;;
62362;SDS011;48396;48.426;1.500;2023-05-07T05:45:56;2.58;;;1.77;;
62362;SDS011;48396;48.426;1.500;2023-05-07T05:48:22;4.60;;;2.00;;
62362;SDS011;48396;48.426;1.500;2023-05-07T05:50:48;5.13;;;2.15;;
62362;SDS011;48396;48.426;1.500;2023-05-07T05:53:14;3.50;;;2.50;;
62362;SDS011;48396;48.426;1.500;2023-05-07T05:55:40;4.35;;;2.00;;
62362;SDS011;48396;48.426;1.500;2023-05-07T05:58:06;3.90;;;2.15;;
62362;SDS011;48396;48.426;1.500;2023-05-07T06:00:32;7.18;;;2.38;;
62362;SDS011;48396;48.426;1.500;2023-05-07T06:02:58;6.13;;;2.50;;
62362;SDS011;48396;48.426;1.500;2023-05-07T06:05:23;7.88;;;3.17;;
62362;SDS011;48396;48.426;1.500;2023-05-07T06:07:49;7.63;;;3.15;;
62362;SDS011;48396;48.426;1.500;2023-05-07T06:10:15;5.03;;;2.88;;
62362;SDS011;48396;48.426;1.500;2023-05-07T06:12:40;4.88;;;2.80;;
62362;SDS011;48396;48.426;1.500;2023-05-07T06:15:06;7.78;;;3.80;;
62362;SDS011;48396;48.426;1.500;2023-05-07T06:17:32;9.35;;;3.78;;
62362;SDS011;48396;48.426;1.500;2023-05-07T06:19:57;9.75;;;3.80;;
62362;SDS011;48396;48.426;1.500;2023-05-07T06:22:23;8.48;;;3.67;;
62362;SDS011;48396;48.426;1.500;2023-05-07T06:24:48;9.63;;;4.03;;
62362;SDS011;48396;48.426;1.500;2023-05-07T06:27:14;9.18;;;4.22;;
62362;SDS011;48396;48.426;1.500;2023-05-07T06:29:40;8.07;;;3.72;;
62362;SDS011;48396;48.426;1.500;2023-05-07T06:32:06;9.52;;;4.00;;
62362;SDS011;48396;48.426;1.500;2023-05-07T06:34:35;13.73;;;4.35;;
62362;SDS011;48396;48.426;1.500;2023-05-07T06:37:01;11.02;;;4.07;;
62362;SDS011;48396;48.426;1.500;2023-05-07T06:39:26;14.18;;;4.90;;
62362;SDS011;48396;48.426;1.500;2023-05-07T06:41:52;12.45;;;4.72;;
62362;SDS011;48396;48.426;1.500;2023-05-07T06:44:18;9.05;;;4.13;;
62362;SDS011;48396;48.426;1.500;2023-05-07T06:46:43;12.15;;;4.75;;
62362;SDS011;48396;48.426;1.500;2023-05-07T06:49:10;11.52;;;4.38;;
62362;SDS011;48396;48.426;1.500;2023-05-07T06:51:35;12.90;;;4.97;;
62362;SDS011;48396;48.426;1.500;2023-05-07T06:54:01;8.80;;;4.43;;
62362;SDS011;48396;48.426;1.500;2023-05-07T06:56:29;9.02;;;3.83;;
62362;SDS011;48396;48.426;1.500;2023-05-07T06:58:55;8.05;;;3.50;;
62362;SDS011;48396;48.426;1.500;2023-05-07T07:01:20;9.18;;;4.13;;
62362;SDS011;48396;48.426;1.500;2023-05-07T07:03:46;8.10;;;4.35;;
62362;SDS011;48396;48.426;1.500;2023-05-07T07:06:12;10.40;;;4.30;;
62362;SDS011;48396;48.426;1.500;2023-05-07T07:08:37;8.38;;;3.83;;
62362;SDS011;48396;48.426;1.500;2023-05-07T07:11:06;6.22;;;3.72;;
62362;SDS011;48396;48.426;1.500;2023-05-07T07:13:31;7.78;;;4.07;;
62362;SDS011;48396;48.426;1.500;2023-05-07T07:15:57;5.40;;;3.20;;
62362;SDS011;48396;48.426;1.500;2023-05-07T07:18:23;7.22;;;3.70;;
62362;SDS011;48396;48.426;1.500;2023-05-07T07:20:48;6.07;;;3.08;;
62362;SDS011;48396;48.426;1.500;2023-05-07T07:23:14;7.05;;;2.97;;
62362;SDS011;48396;48.426;1.500;2023-05-07T07:25:40;4.65;;;2.80;;
62362;SDS011;48396;48.426;1.500;2023-05-07T07:28:05;5.10;;;2.92;;
62362;SDS011;48396;48.426;1.500;2023-05-07T07:30:31;3.13;;;2.35;;
62362;SDS011;48396;48.426;1.500;2023-05-07T07:32:57;4.70;;;2.40;;
62362;SDS011;48396;48.426;1.500;2023-05-07T07:35:27;4.38;;;2.00;;
62362;SDS011;48396;48.426;1.500;2023-05-07T07:38:02;2.83;;;2.40;;
62362;SDS011;48396;48.426;1.500;2023-05-07T07:40:27;3.70;;;2.30;;
62362;SDS011;48396;48.426;1.500;2023-05-07T07:42:53;3.63;;;2.28;;
62362;SDS011;48396;48.426;1.500;2023-05-07T07:45:19;3.58;;;2.30;;
62362;SDS011;48396;48.426;1.500;2023-05-07T07:47:45;6.15;;;2.42;;
62362;SDS011;48396;48.426;1.500;2023-05-07T07:50:11;3.22;;;2.22;;
62362;SDS011;48396;48.426;1.500;2023-05-07T07:52:37;3.00;;;2.15;;
62362;SDS011;48396;48.426;1.500;2023-05-07T07:55:02;3.08;;;2.20;;
62362;SDS011;48396;48.426;1.500;2023-05-07T07:57:29;3.40;;;1.80;;
62362;SDS011;48396;48.426;1.500;2023-05-07T07:59:55;3.47;;;2.17;;
62362;SDS011;48396;48.426;1.500;2023-05-07T08:02:20;4.50;;;1.85;;
62362;SDS011;48396;48.426;1.500;2023-05-07T08:04:46;5.13;;;1.77;;
62362;SDS011;48396;48.426;1.500;2023-05-07T08:07:11;2.50;;;1.58;;
62362;SDS011;48396;48.426;1.500;2023-05-07T08:09:37;4.00;;;1.95;;
62362;SDS011;48396;48.426;1.500;2023-05-07T08:12:04;4.15;;;2.15;;
62362;SDS011;48396;48.426;1.500;2023-05-07T08:14:33;4.05;;;2.50;;
62362;SDS011;48396;48.426;1.500;2023-05-07T08:16:59;3.03;;;2.10;;
62362;SDS011;48396;48.426;1.500;2023-05-07T08:19:24;2.60;;;1.83;;
62362;SDS011;48396;48.426;1.500;2023-05-07T08:21:50;2.55;;;1.77;;
62362;SDS011;48396;48.426;1.500;2023-05-07T08:24:16;1.60;;;1.50;;
62362;SDS011;48396;48.426;1.500;2023-05-07T08:26:43;2.70;;;1.30;;
62362;SDS011;48396;48.426;1.500;2023-05-07T08:29:27;1.83;;;1.52;;
62362;SDS011;48396;48.426;1.500;2023-05-07T08:31:52;2.28;;;1.40;;
62362;SDS011;48396;48.426;1.500;2023-05-07T08:34:18;1.95;;;0.95;;
62362;SDS011;48396;48.426;1.500;2023-05-07T08:36:44;2.90;;;1.50;;
62362;SDS011;48396;48.426;1.500;2023-05-07T08:39:12;2.30;;;1.38;;
62362;SDS011;48396;48.426;1.500;2023-05-07T08:41:37;2.40;;;1.20;;
62362;SDS011;48396;48.426;1.500;2023-05-07T08:44:03;2.33;;;1.10;;
62362;SDS011;48396;48.426;1.500;2023-05-07T08:46:36;2.33;;;1.17;;
62362;SDS011;48396;48.426;1.500;2023-05-07T08:49:02;2.75;;;1.23;;
62362;SDS011;48396;48.426;1.500;2023-05-07T08:51:27;1.63;;;0.98;;
62362;SDS011;48396;48.426;1.500;2023-05-07T08:53:53;1.77;;;1.30;;
62362;SDS011;48396;48.426;1.500;2023-05-07T08:56:19;2.50;;;1.42;;
62362;SDS011;48396;48.426;1.500;2023-05-07T08:58:45;2.53;;;1.10;;
62362;SDS011;48396;48.426;1.500;2023-05-07T09:01:15;2.65;;;1.38;;
62362;SDS011;48396;48.426;1.500;2023-05-07T09:03:44;1.50;;;0.90;;
62362;SDS011;48396;48.426;1.500;2023-05-07T09:06:11;2.42;;;1.30;;
62362;SDS011;48396;48.426;1.500;2023-05-07T09:08:37;1.65;;;1.10;;
62362;SDS011;48396;48.426;1.500;2023-05-07T09:11:03;1.60;;;1.50;;
62362;SDS011;48396;48.426;1.500;2023-05-07T09:13:28;2.35;;;1.20;;
62362;SDS011;48396;48.426;1.500;2023-05-07T09:15:54;1.30;;;1.20;;
62362;SDS011;48396;48.426;1.500;2023-05-07T09:18:21;1.45;;;1.35;;
62362;SDS011;48396;48.426;1.500;2023-05-07T09:20:48;1.75;;;1.45;;
62362;SDS011;48396;48.426;1.500;2023-05-07T09:23:13;1.60;;;1.50;;
62362;SDS011;48396;48.426;1.500;2023-05-07T09:25:40;3.42;;;1.50;;
62362;SDS011;48396;48.426;1.500;2023-05-07T09:28:05;1.52;;;1.40;;
62362;SDS011;48396;48.426;1.500;2023-05-07T09:30:32;1.80;;;1.33;;
62362;SDS011;48396;48.426;1.500;2023-05-07T09:32:58;2.05;;;1.20;;
62362;SDS011;48396;48.426;1.500;2023-05-07T09:35:43;3.58;;;1.23;;
62362;SDS011;48396;48.426;1.500;2023-05-07T09:38:09;1.58;;;1.20;;
62362;SDS011;48396;48.426;1.500;2023-05-07T09:40:34;3.00;;;1.55;;
62362;SDS011;48396;48.426;1.500;2023-05-07T09:43:09;1.63;;;1.38;;
62362;SDS011;48396;48.426;1.500;2023-05-07T09:45:37;1.70;;;1.50;;
62362;SDS011;48396;48.426;1.500;2023-05-07T09:48:04;2.45;;;1.30;;
62362;SDS011;48396;48.426;1.500;2023-05-07T09:50:40;1.48;;;1.38;;
62362;SDS011;48396;48.426;1.500;2023-05-07T09:53:14;2.67;;;1.40;;
62362;SDS011;48396;48.426;1.500;2023-05-07T09:55:41;1.80;;;1.70;;
62362;SDS011;48396;48.426;1.500;2023-05-07T09:58:08;2.10;;;1.80;;
62362;SDS011;48396;48.426;1.500;2023-05-07T10:00:37;3.35;;;2.55;;
62362;SDS011;48396;48.426;1.500;2023-05-07T10:03:05;4.38;;;2.50;;
62362;SDS011;48396;48.426;1.500;2023-05-07T10:05:31;6.72;;;3.15;;
62362;SDS011;48396;48.426;1.500;2023-05-07T10:07:57;5.45;;;3.03;;
62362;SDS011;48396;48.426;1.500;2023-05-07T10:10:24;5.38;;;3.15;;
62362;SDS011;48396;48.426;1.500;2023-05-07T10:12:50;5.88;;;3.33;;
62362;SDS011;48396;48.426;1.500;2023-05-07T10:15:16;5.90;;;3.35;;
62362;SDS011;48396;48.426;1.500;2023-05-07T10:17:42;10.10;;;3.53;;
62362;SDS011;48396;48.426;1.500;2023-05-07T10:20:07;5.38;;;3.40;;
62362;SDS011;48396;48.426;1.500;2023-05-07T10:22:51;6.22;;;3.42;;
62362;SDS011;48396;48.426;1.500;2023-05-07T10:25:25;6.93;;;3.53;;
62362;SDS011;48396;48.426;1.500;2023-05-07T10:27:53;8.43;;;3.65;;
62362;SDS011;48396;48.426;1.500;2023-05-07T10:30:26;5.72;;;3.47;;
62362;SDS011;48396;48.426;1.500;2023-05-07T10:33:08;6.93;;;3.53;;
62362;SDS011;48396;48.426;1.500;2023-05-07T10:35:43;6.40;;;3.47;;
62362;SDS011;48396;48.426;1.500;2023-05-07T10:38:10;6.15;;;3.25;;
62362;SDS011;48396;48.426;1.500;2023-05-07T10:40:36;8.02;;;3.42;;
62362;SDS011;48396;48.426;1.500;2023-05-07T10:43:02;9.30;;;3.78;;
62362;SDS011;48396;48.426;1.500;2023-05-07T10:45:30;7.57;;;3.30;;
62362;SDS011;48396;48.426;1.500;2023-05-07T10:48:10;7.97;;;3.72;;
62362;SDS011;48396;48.426;1.500;2023-05-07T10:50:40;6.68;;;3.50;;
62362;SDS011;48396;48.426;1.500;2023-05-07T10:53:28;10.98;;;3.92;;
62362;SDS011;48396;48.426;1.500;2023-05-07T10:56:23;7.95;;;3.72;;
62362;SDS011;48396;48.426;1.500;2023-05-07T10:58:41;6.50;;;3.45;;
62362;SDS011;48396;48.426;1.500;2023-05-07T11:01:07;6.50;;;3.80;;
62362;SDS011;48396;48.426;1.500;2023-05-07T11:03:32;10.60;;;4.03;;
62362;SDS011;48396;48.426;1.500;2023-05-07T11:06:14;5.72;;;3.47;;
62362;SDS011;48396;48.426;1.500;2023-05-07T11:08:53;7.05;;;3.00;;
62362;SDS011;48396;48.426;1.500;2023-05-07T11:11:42;8.25;;;3.50;;
62362;SDS011;48396;48.426;1.500;2023-05-07T11:14:09;6.25;;;3.28;;
62362;SDS011;48396;48.426;1.500;2023-05-07T11:16:35;7.80;;;3.25;;
62362;SDS011;48396;48.426;1.500;2023-05-07T11:19:02;7.45;;;2.75;;
62362;SDS011;48396;48.426;1.500;2023-05-07T11:21:35;7.72;;;3.17;;
62362;SDS011;48396;48.426;1.500;2023-05-07T11:24:02;7.47;;;3.08;;
62362;SDS011;48396;48.426;1.500;2023-05-07T11:26:30;6.00;;;3.30;;
62362;SDS011;48396;48.426;1.500;2023-05-07T11:29:10;8.95;;;3.60;;
62362;SDS011;48396;48.426;1.500;2023-05-07T11:31:36;10.10;;;3.63;;
62362;SDS011;48396;48.426;1.500;2023-05-07T11:34:02;8.38;;;3.03;;
62362;SDS011;48396;48.426;1.500;2023-05-07T11:36:30;5.70;;;2.90;;
62362;SDS011;48396;48.426;1.500;2023-05-07T11:38:57;4.55;;;2.70;;
62362;SDS011;48396;48.426;1.500;2023-05-07T11:41:32;5.85;;;2.90;;
62362;SDS011;48396;48.426;1.500;2023-05-07T11:44:04;4.00;;;2.70;;
62362;SDS011;48396;48.426;1.500;2023-05-07T11:46:30;4.90;;;2.72;;
62362;SDS011;48396;48.426;1.500;2023-05-07T11:48:56;6.93;;;2.72;;
62362;SDS011;48396;48.426;1.500;2023-05-07T11:51:22;3.60;;;2.60;;
62362;SDS011;48396;48.426;1.500;2023-05-07T11:53:50;5.63;;;2.38;;
62362;SDS011;48396;48.426;1.500;2023-05-07T11:56:17;4.00;;;2.10;;
62362;SDS011;48396;48.426;1.500;2023-05-07T11:58:44;3.13;;;1.95;;
62362;SDS011;48396;48.426;1.500;2023-05-07T12:01:11;2.22;;;1.45;;
62362;SDS011;48396;48.426;1.500;2023-05-07T12:03:41;2.67;;;1.73;;
62362;SDS011;48396;48.426;1.500;2023-05-07T12:06:26;2.35;;;1.65;;
62362;SDS011;48396;48.426;1.500;2023-05-07T12:08:52;2.88;;;1.60;;
62362;SDS011;48396;48.426;1.500;2023-05-07T12:11:22;6.20;;;2.25;;
62362;SDS011;48396;48.426;1.500;2023-05-07T12:13:49;4.07;;;2.20;;
62362;SDS011;48396;48.426;1.500;2023-05-07T12:16:14;2.45;;;1.77;;
62362;SDS011;48396;48.426;1.500;2023-05-07T12:18:40;2.92;;;1.40;;
62362;SDS011;48396;48.426;1.500;2023-05-07T12:21:25;1.85;;;1.67;;
62362;SDS011;48396;48.426;1.500;2023-05-07T12:23:51;4.03;;;1.65;;
62362;SDS011;48396;48.426;1.500;2023-05-07T12:26:16;2.10;;;1.70;;
62362;SDS011;48396;48.426;1.500;2023-05-07T12:28:45;2.33;;;1.38;;
62362;SDS011;48396;48.426;1.500;2023-05-07T12:31:11;2.47;;;1.50;;
62362;SDS011;48396;48.426;1.500;2023-05-07T12:33:39;2.70;;;1.60;;
62362;SDS011;48396;48.426;1.500;2023-05-07T12:36:06;1.13;;;1.00;;
62362;SDS011;48396;48.426;1.500;2023-05-07T12:38:34;1.67;;;1.40;;
62362;SDS011;48396;48.426;1.500;2023-05-07T12:41:01;1.67;;;1.50;;
62362;SDS011;48396;48.426;1.500;2023-05-07T12:43:27;2.45;;;1.63;;
62362;SDS011;48396;48.426;1.500;2023-05-07T12:45:54;2.97;;;1.27;;
62362;SDS011;48396;48.426;1.500;2023-05-07T12:48:22;1.73;;;1.60;;
62362;SDS011;48396;48.426;1.500;2023-05-07T12:50:51;1.90;;;1.60;;
62362;SDS011;48396;48.426;1.500;2023-05-07T12:53:19;2.63;;;1.50;;
62362;SDS011;48396;48.426;1.500;2023-05-07T12:55:46;2.50;;;1.02;;
62362;SDS011;48396;48.426;1.500;2023-05-07T12:58:17;1.77;;;1.35;;
62362;SDS011;48396;48.426;1.500;2023-05-07T13:00:48;2.08;;;1.50;;
62362;SDS011;48396;48.426;1.500;2023-05-07T13:03:31;1.58;;;1.48;;
62362;SDS011;48396;48.426;1.500;2023-05-07T13:05:59;2.17;;;1.60;;
62362;SDS011;48396;48.426;1.500;2023-05-07T13:08:27;3.95;;;2.25;;
62362;SDS011;48396;48.426;1.500;2023-05-07T13:13:38;4.80;;;1.95;;
62362;SDS011;48396;48.426;1.500;2023-05-07T13:16:05;3.15;;;1.70;;
62362;SDS011;48396;48.426;1.500;2023-05-07T13:18:32;3.25;;;1.60;;
62362;SDS011;48396;48.426;1.500;2023-05-07T13:20:58;3.15;;;1.83;;
62362;SDS011;48396;48.426;1.500;2023-05-07T13:23:25;3.50;;;1.73;;
62362;SDS011;48396;48.426;1.500;2023-05-07T13:25:51;3.92;;;1.90;;
62362;SDS011;48396;48.426;1.500;2023-05-07T13:28:20;2.33;;;1.80;;
62362;SDS011;48396;48.426;1.500;2023-05-07T13:30:46;5.60;;;2.10;;
62362;SDS011;48396;48.426;1.500;2023-05-07T13:33:13;6.43;;;2.38;;
62362;SDS011;48396;48.426;1.500;2023-05-07T13:35:38;6.57;;;2.40;;
62362;SDS011;48396;48.426;1.500;2023-05-07T13:38:04;2.13;;;1.90;;
62362;SDS011;48396;48.426;1.500;2023-05-07T13:40:30;6.35;;;2.53;;
62362;SDS011;48396;48.426;1.500;2023-05-07T13:42:59;2.95;;;1.92;;
62362;SDS011;48396;48.426;1.500;2023-05-07T13:45:28;3.03;;;2.00;;
62362;SDS011;48396;48.426;1.500;2023-05-07T13:47:55;5.25;;;2.17;;
62362;SDS011;48396;48.426;1.500;2023-05-07T13:50:21;4.53;;;2.08;;
62362;SDS011;48396;48.426;1.500;2023-05-07T13:52:46;3.08;;;1.92;;
62362;SDS011;48396;48.426;1.500;2023-05-07T13:55:18;2.92;;;2.10;;
62362;SDS011;48396;48.426;1.500;2023-05-07T13:57:45;3.88;;;2.47;;
62362;SDS011;48396;48.426;1.500;2023-05-07T14:00:12;4.75;;;2.65;;
62362;SDS011;48396;48.426;1.500;2023-05-07T14:02:39;5.78;;;2.42;;
62362;SDS011;48396;48.426;1.500;2023-05-07T14:05:05;6.65;;;2.53;;
62362;SDS011;48396;48.426;1.500;2023-05-07T14:07:31;6.43;;;2.58;;
62362;SDS011;48396;48.426;1.500;2023-05-07T14:09:57;6.50;;;2.58;;
62362;SDS011;48396;48.426;1.500;2023-05-07T14:12:23;6.28;;;3.00;;
62362;SDS011;48396;48.426;1.500;2023-05-07T14:14:49;6.38;;;3.60;;
62362;SDS011;48396;48.426;1.500;2023-05-07T14:17:16;7.22;;;3.92;;
62362;SDS011;48396;48.426;1.500;2023-05-07T14:19:42;9.00;;;4.07;;
62362;SDS011;48396;48.426;1.500;2023-05-07T14:22:08;8.13;;;3.88;;
62362;SDS011;48396;48.426;1.500;2023-05-07T14:24:34;7.72;;;4.10;;
62362;SDS011;48396;48.426;1.500;2023-05-07T14:26:59;11.95;;;5.43;;
62362;SDS011;48396;48.426;1.500;2023-05-07T14:29:25;12.77;;;5.50;;
62362;SDS011;48396;48.426;1.500;2023-05-07T14:31:51;10.48;;;4.93;;
62362;SDS011;48396;48.426;1.500;2023-05-07T14:34:16;13.90;;;5.68;;
62362;SDS011;48396;48.426;1.500;2023-05-07T14:36:42;11.40;;;5.10;;
62362;SDS011;48396;48.426;1.500;2023-05-07T14:39:08;13.68;;;4.90;;
62362;SDS011;48396;48.426;1.500;2023-05-07T14:41:34;14.23;;;5.80;;
62362;SDS011;48396;48.426;1.500;2023-05-07T14:44:00;13.82;;;5.25;;
62362;SDS011;48396;48.426;1.500;2023-05-07T14:46:26;9.73;;;4.88;;
62362;SDS011;48396;48.426;1.500;2023-05-07T14:48:52;8.63;;;3.80;;
62362;SDS011;48396;48.426;1.500;2023-05-07T14:51:18;7.63;;;3.38;;